M I D A S
Marine Information and Data Acquisition System
Tripno 2088 of the Zeeleeuw from 2011-02-15 05:59:19 to 2011-02-15 14:27:17
Back to CruiseResearch ActivitiesStationsMapUnderway DataData graphs

EquipmentUnitsComment
TimeDGPSUTC
LatitudeDGPSDM.mWGS84
LongitudeDGPSDM.mWGS84
HeadingGyrodeg 
SOGDGPSknotsSpeed over ground
COGDGPSdegCourse over ground
DepthEcho soundermeters200 kHz
Missing or incorrect values are displayed as -999
Navigation data collected by the RV Zeeleeuw from 2011-02-15 05:54:16 to 2011-02-15 15:52:14
Time Latitude Longitude Heading SOG COG Depth
2011-02-15 05:55:22 51°13.662 2°55.959 125.7 -999 221 8
2011-02-15 05:56:21 51°13.662 2°55.959 125.7 -999 130 7.9
2011-02-15 05:57:21 51°13.661 2°55.959 127.5 0.1 117 7.8
2011-02-15 05:58:20 51°13.662 2°55.96 128.8 -999 46 8
2011-02-15 05:59:22 51°13.662 2°55.96 129.5 0.1 70 7.8
2011-02-15 06:00:22 51°13.661 2°55.96 121.3 0.1 122 -999
2011-02-15 06:01:22 51°13.66 2°55.959 111.9 0.1 300 -999
2011-02-15 06:02:22 51°13.676 2°55.891 107.9 4.2 287 -999
2011-02-15 06:03:22 51°13.693 2°55.789 97.3 3.5 281 -999
2011-02-15 06:04:22 51°13.698 2°55.737 68.9 0.4 2 11.9
2011-02-15 06:05:19 51°13.715 2°55.746 15.6 1.7 5 12.2
2011-02-15 06:06:22 51°13.765 2°55.704 322.7 5.1 323 -999
2011-02-15 06:07:21 51°13.872 2°55.604 336.2 9.2 335 10.7
2011-02-15 06:08:21 51°14.019 2°55.498 339 9.9 336 10.7
2011-02-15 06:09:19 51°14.168 2°55.39 336.8 10.3 333 10.6
2011-02-15 06:10:18 51°14.315 2°55.248 327.9 10.8 325 10.7
2011-02-15 06:11:18 51°14.469 2°55.077 326.4 11.6 324 10.9
2011-02-15 06:12:18 51°14.637 2°54.884 327.9 13 323 11.4
2011-02-15 06:13:18 51°14.815 2°54.682 328.5 13.1 325 11.5
2011-02-15 06:14:18 51°14.985 2°54.467 323.1 13 320 11.3
2011-02-15 06:15:18 51°15.154 2°54.249 323.3 13.1 319 11.4
2011-02-15 06:16:18 51°15.322 2°54.03 326.2 13.1 321 11.4
2011-02-15 06:17:18 51°15.49 2°53.809 325.9 13 321 11.7
2011-02-15 06:18:18 51°15.653 2°53.581 324.8 13 321 11.6
2011-02-15 06:19:18 51°15.838 2°53.412 344 12.9 339 12.1
2011-02-15 06:20:18 51°16.034 2°53.271 338.9 12.9 335 12.1
2011-02-15 06:21:18 51°16.229 2°53.128 337.5 12.9 333 12.2
2011-02-15 06:22:18 51°16.423 2°52.979 338.3 12.9 334 12.2
2011-02-15 06:23:18 51°16.615 2°52.827 337.6 12.9 334 11.9
2011-02-15 06:24:18 51°16.808 2°52.685 341.8 12.7 339 10.2
2011-02-15 06:25:18 51°17.001 2°52.55 338.4 12.7 335 10
2011-02-15 06:26:18 51°17.205 2°52.488 1.3 12.6 359 10.7
2011-02-15 06:27:18 51°17.415 2°52.478 -999 12.6 357 10.9
2011-02-15 06:28:18 51°17.624 2°52.464 1 12.5 358 10.5
2011-02-15 06:29:18 51°17.834 2°52.449 0.1 12.6 357 10.9
2011-02-15 06:30:18 51°18.043 2°52.433 -999 12.6 357 11.3
2011-02-15 06:31:18 51°18.253 2°52.411 359.3 12.7 356 11.4
2011-02-15 06:32:18 51°18.463 2°52.394 0.5 12.6 357 12
2011-02-15 06:33:18 51°18.673 2°52.368 359.2 12.7 356 12.4
2011-02-15 06:34:18 51°18.883 2°52.344 359.2 12.7 355 13.4
2011-02-15 06:35:18 51°19.093 2°52.318 359.1 12.7 355 14.5
2011-02-15 06:36:18 51°19.302 2°52.291 359.1 12.6 355 15.4
2011-02-15 06:37:18 51°19.511 2°52.277 4.9 12.6 1 16.2
2011-02-15 06:38:18 51°19.722 2°52.283 5 12.7 1 16.5
2011-02-15 06:39:18 51°19.933 2°52.287 4.3 12.6 1 16.8
2011-02-15 06:40:18 51°20.145 2°52.288 3.6 12.7 -999 16.9
2011-02-15 06:41:18 51°20.356 2°52.306 9.7 12.7 6 16.3
2011-02-15 06:42:18 51°20.565 2°52.347 10.3 12.7 7 15.2
2011-02-15 06:43:18 51°20.775 2°52.388 9.7 12.7 7 14.8
2011-02-15 06:44:18 51°20.985 2°52.422 8.7 12.7 6 15.9
2011-02-15 06:45:18 51°21.197 2°52.453 8.7 12.8 5 17.4
2011-02-15 06:46:18 51°21.409 2°52.491 8.8 12.9 5 18.4
2011-02-15 06:47:18 51°21.622 2°52.521 9 12.9 4 20.6
2011-02-15 06:48:18 51°21.834 2°52.555 9.3 12.9 6 23.1
2011-02-15 06:49:18 51°22.047 2°52.589 10.1 12.8 6 24.8
2011-02-15 06:50:18 51°22.26 2°52.63 9.2 12.9 6 25
2011-02-15 06:51:18 51°22.473 2°52.665 9.6 12.9 7 23.5
2011-02-15 06:52:18 51°22.686 2°52.698 8.6 12.8 6 23.6
2011-02-15 06:53:18 51°22.897 2°52.737 10.5 12.7 9 23.2
2011-02-15 06:54:18 51°23.105 2°52.803 14.5 12.7 10 22.7
2011-02-15 06:55:18 51°23.312 2°52.873 14.3 12.7 11 21.9
2011-02-15 06:56:18 51°23.52 2°52.936 13.5 12.8 11 22.1
2011-02-15 06:57:18 51°23.729 2°53.001 14.2 12.7 11 20.8
2011-02-15 06:58:18 51°23.938 2°53.058 11.2 12.8 8 20
2011-02-15 06:59:18 51°24.146 2°53.12 12.3 12.7 11 18.9
2011-02-15 07:00:18 51°24.353 2°53.185 13.9 12.7 11 19.6
2011-02-15 07:01:18 51°24.56 2°53.251 13.3 12.7 10 21.3
2011-02-15 07:02:18 51°24.767 2°53.313 14 12.8 12 18.4
2011-02-15 07:03:18 51°24.973 2°53.384 14.2 12.6 12 20.2
2011-02-15 07:04:18 51°25.181 2°53.448 13.4 12.8 11 22.9
2011-02-15 07:05:18 51°25.39 2°53.506 12.8 12.8 11 23.5
2011-02-15 07:06:18 51°25.598 2°53.569 13.7 12.6 12 26.3
2011-02-15 07:07:18 51°25.806 2°53.635 13.7 12.8 11 28.5
2011-02-15 07:08:18 51°26.017 2°53.691 11.7 12.9 8 31.1
2011-02-15 07:09:18 51°26.227 2°53.752 13.7 12.9 11 32.5
2011-02-15 07:10:18 51°26.438 2°53.816 13 12.9 10 33.5
2011-02-15 07:11:18 51°26.649 2°53.874 14.2 12.7 11 33
2011-02-15 07:12:18 51°26.86 2°53.938 13.6 12.9 12 27.3
2011-02-15 07:13:18 51°27.07 2°54.005 13.2 12.8 12 25.2
2011-02-15 07:14:18 51°27.28 2°54.066 12.8 12.7 11 25.9
2011-02-15 07:15:18 51°27.489 2°54.136 12.7 12.9 11 26.6
2011-02-15 07:16:18 51°27.702 2°54.188 7.2 12.9 3 24.9
2011-02-15 07:17:18 51°27.916 2°54.204 6.8 12.9 6 20.8
2011-02-15 07:18:18 51°28.126 2°54.251 11 12.7 9 22.7
2011-02-15 07:19:18 51°28.335 2°54.302 11.5 12.8 10 20.5
2011-02-15 07:20:18 51°28.545 2°54.349 9.5 12.8 8 23.9
2011-02-15 07:21:18 51°28.755 2°54.399 13 12.9 10 26.3
2011-02-15 07:22:18 51°28.968 2°54.45 11.1 12.9 8 27
2011-02-15 07:23:18 51°29.183 2°54.502 10 13 8 28.8
2011-02-15 07:24:18 51°29.398 2°54.544 8.6 13 7 30.6
2011-02-15 07:25:18 51°29.613 2°54.594 11.4 12.9 9 30.8
2011-02-15 07:26:18 51°29.827 2°54.651 10.8 13.3 9 32.1
2011-02-15 07:27:18 51°30.041 2°54.704 12 13 9 35
2011-02-15 07:28:18 51°30.257 2°54.76 10.3 13.2 9 35.8
2011-02-15 07:29:18 51°30.474 2°54.817 11.3 13.3 10 35.8
2011-02-15 07:30:18 51°30.691 2°54.868 9.6 13.1 8 34.8
2011-02-15 07:31:18 51°30.904 2°54.922 10.6 12.9 8 20.2
2011-02-15 07:32:18 51°31.113 2°54.967 8.9 12.6 7 19.8
2011-02-15 07:33:18 51°31.317 2°55.066 20.5 12.8 19 17.2
2011-02-15 07:34:18 51°31.518 2°55.173 18.1 12.8 16 20.4
2011-02-15 07:35:18 51°31.72 2°55.276 19.5 12.8 19 18.6
2011-02-15 07:36:18 51°31.92 2°55.386 17.6 12.6 16 22.6
2011-02-15 07:37:18 51°32.116 2°55.488 18.6 10.9 17 22.2
2011-02-15 07:38:18 51°32.257 2°55.57 19.5 8 18 20.4
2011-02-15 07:39:18 51°32.372 2°55.638 20.4 6.7 21 22
2011-02-15 07:40:18 51°32.472 2°55.69 11.7 6 10 24
2011-02-15 07:41:18 51°32.561 2°55.687 351.8 4.9 351 24.3
2011-02-15 07:42:18 51°32.634 2°55.666 348.8 4 349 27.3
2011-02-15 07:43:18 51°32.687 2°55.646 344.7 2.8 343 28.2
2011-02-15 07:44:18 51°32.722 2°55.622 324 2.1 323 27.7
2011-02-15 07:45:18 51°32.74 2°55.584 288.6 1.5 291 27.7
2011-02-15 07:46:18 51°32.744 2°55.55 262.5 1.1 275 28.6
2011-02-15 07:47:18 51°32.747 2°55.527 255.9 0.7 293 28.7
2011-02-15 07:48:18 51°32.75 2°55.512 250.4 0.4 303 29
2011-02-15 07:49:18 51°32.754 2°55.506 247.7 0.4 344 29
2011-02-15 07:50:18 51°32.762 2°55.503 249.2 0.7 358 28.7
2011-02-15 07:51:18 51°32.767 2°55.497 254.4 0.7 295 28.7
2011-02-15 07:52:18 51°32.765 2°55.464 247.3 1.8 258 29.1
2011-02-15 07:53:18 51°32.752 2°55.415 238.9 2.1 243 25.6
2011-02-15 07:54:18 51°32.736 2°55.37 233.4 1.8 238 23.8
2011-02-15 07:55:18 51°32.722 2°55.336 229.3 1.3 232 26.2
2011-02-15 07:56:18 51°32.711 2°55.309 226.8 1.1 239 24.6
2011-02-15 07:57:18 51°32.703 2°55.288 226.2 0.9 241 24.5
2011-02-15 07:58:18 51°32.691 2°55.264 216.2 2.5 213 26.4
2011-02-15 07:59:18 51°32.631 2°55.301 127.2 5.4 116 26.3
2011-02-15 08:00:18 51°32.67 2°55.455 51 7.8 49 25.7
2011-02-15 08:01:18 51°32.755 2°55.628 55.5 7.5 51 25.1
2011-02-15 08:02:18 51°32.765 2°55.762 112.1 4.1 108 25.2
2011-02-15 08:03:18 51°32.723 2°55.826 174.1 3.2 170 25.4
2011-02-15 08:04:18 51°32.687 2°55.801 234.4 2.1 226 25.9
2011-02-15 08:05:18 51°32.676 2°55.758 243.6 1.3 247 26.3
2011-02-15 08:06:18 51°32.672 2°55.731 242.3 0.8 267 26.9
2011-02-15 08:07:18 51°32.672 2°55.715 240 0.6 289 26.8
2011-02-15 08:08:18 51°32.676 2°55.708 240.3 0.3 331 27.2
2011-02-15 08:09:18 51°32.683 2°55.703 242.5 0.6 344 26.9
2011-02-15 08:10:18 51°32.692 2°55.704 246.5 0.6 11 27.2
2011-02-15 08:11:18 51°32.702 2°55.705 247.2 0.6 2 26.7
2011-02-15 08:12:18 51°32.712 2°55.707 249.5 0.6 4 25.5
2011-02-15 08:13:18 51°32.718 2°55.695 248.2 1 274 24.4
2011-02-15 08:14:18 51°32.713 2°55.664 240.2 1.4 244 27.1
2011-02-15 08:15:18 51°32.705 2°55.626 236.6 1.5 246 28.6
2011-02-15 08:16:18 51°32.693 2°55.59 231 1.5 239 29.3
2011-02-15 08:17:18 51°32.681 2°55.56 226 1.1 241 27.9
2011-02-15 08:18:18 51°32.672 2°55.541 222.9 0.7 244 26.5
2011-02-15 08:19:18 51°32.668 2°55.528 219.7 0.4 231 25.2
2011-02-15 08:20:18 51°32.663 2°55.519 215 0.4 240 24
2011-02-15 08:21:18 51°32.66 2°55.513 216.2 0.3 253 22
2011-02-15 08:22:18 51°32.658 2°55.507 218.4 0.2 238 22.1
2011-02-15 08:23:18 51°32.658 2°55.5 220.8 0.3 277 22.7
2011-02-15 08:24:18 51°32.659 2°55.493 221.5 0.3 283 23.5
2011-02-15 08:25:18 51°32.659 2°55.486 221.5 0.2 287 24.4
2011-02-15 08:26:18 51°32.659 2°55.479 219.3 0.1 279 25.1
2011-02-15 08:27:18 51°32.66 2°55.474 219.4 0.1 265 25.3
2011-02-15 08:28:18 51°32.662 2°55.47 222.7 0.3 322 25.8
2011-02-15 08:29:18 51°32.667 2°55.464 228.1 0.3 334 25.7
2011-02-15 08:30:18 51°32.672 2°55.459 229.2 0.4 333 25.3
2011-02-15 08:31:18 51°32.679 2°55.455 230.4 0.5 316 25.6
2011-02-15 08:32:18 51°32.683 2°55.451 226.4 0.4 334 25.4
2011-02-15 08:33:18 51°32.688 2°55.447 227 0.2 325 25.3
2011-02-15 08:34:18 51°32.692 2°55.441 227.4 0.3 301 25.4
2011-02-15 08:35:18 51°32.695 2°55.433 228.2 0.4 296 25.8
2011-02-15 08:36:18 51°32.696 2°55.426 224.6 0.3 283 25.9
2011-02-15 08:37:18 51°32.699 2°55.421 224.6 0.3 304 26.3
2011-02-15 08:38:18 51°32.701 2°55.415 221.9 0.3 303 26.3
2011-02-15 08:39:18 51°32.703 2°55.41 223.5 0.4 319 26
2011-02-15 08:40:18 51°32.707 2°55.405 225.4 0.2 317 26.1
2011-02-15 08:41:18 51°32.711 2°55.399 226.5 0.3 304 25.7
2011-02-15 08:42:18 51°32.714 2°55.394 225.9 0.3 293 25.9
2011-02-15 08:43:18 51°32.716 2°55.388 227 0.3 333 26
2011-02-15 08:44:18 51°32.721 2°55.383 228 0.3 333 25.4
2011-02-15 08:45:18 51°32.728 2°55.38 229.4 0.5 358 24.9
2011-02-15 08:46:18 51°32.738 2°55.381 229.3 0.7 10 23
2011-02-15 08:47:18 51°32.752 2°55.386 233 1 10 24.5
2011-02-15 08:48:18 51°32.768 2°55.393 241.8 1 12 25.6
2011-02-15 08:49:18 51°32.784 2°55.402 249.4 1.1 22 27.4
2011-02-15 08:50:18 51°32.802 2°55.412 254 1.4 17 29.2
2011-02-15 08:51:18 51°32.817 2°55.416 251.7 0.9 1 29.2
2011-02-15 08:52:18 51°32.829 2°55.412 239.7 0.8 302 29.1
2011-02-15 08:53:18 51°32.829 2°55.389 232.8 1 252 28.5
2011-02-15 08:54:18 51°32.821 2°55.362 225.9 1.1 238 28.2
2011-02-15 08:55:18 51°32.813 2°55.342 226.1 0.8 240 26.8
2011-02-15 08:56:18 51°32.812 2°55.32 242.5 1.2 272 24.5
2011-02-15 08:57:18 51°32.814 2°55.272 258.3 2.2 273 25.3
2011-02-15 08:58:18 51°32.814 2°55.208 254.5 2.5 269 26.9
2011-02-15 08:59:18 51°32.811 2°55.151 247 1.7 267 24.7
2011-02-15 09:00:18 51°32.81 2°55.118 240.3 0.9 274 27.4
2011-02-15 09:01:18 51°32.811 2°55.1 234.5 0.5 271 27.5
2011-02-15 09:02:18 51°32.814 2°55.089 231.8 0.4 299 27.4
2011-02-15 09:03:18 51°32.817 2°55.084 229.4 0.3 316 27.6
2011-02-15 09:04:18 51°32.823 2°55.081 229 0.3 335 27.4
2011-02-15 09:05:18 51°32.828 2°55.079 227.9 0.5 350 27.8
2011-02-15 09:06:18 51°32.837 2°55.078 232.2 0.6 354 27.1
2011-02-15 09:07:18 51°32.845 2°55.078 230.9 0.5 2 26.6
2011-02-15 09:08:18 51°32.854 2°55.077 233.3 0.5 7 25.6
2011-02-15 09:09:18 51°32.862 2°55.077 232.5 0.4 14 24.4
2011-02-15 09:10:18 51°32.87 2°55.078 232.7 0.5 357 26.2
2011-02-15 09:11:18 51°32.877 2°55.077 231.3 0.4 342 26.4
2011-02-15 09:12:18 51°32.885 2°55.077 231.8 0.5 357 27.1
2011-02-15 09:13:18 51°32.894 2°55.076 230.6 0.7 351 27.4
2011-02-15 09:14:18 51°32.903 2°55.076 230.5 0.5 358 27.7
2011-02-15 09:15:18 51°32.911 2°55.076 229.9 0.6 4 27.5
2011-02-15 09:16:18 51°32.919 2°55.078 227.8 0.5 24 27
2011-02-15 09:17:18 51°32.929 2°55.079 229.9 0.5 1 25.1
2011-02-15 09:18:18 51°32.94 2°55.08 233.2 0.7 4 25.2
2011-02-15 09:19:18 51°32.949 2°55.079 231.3 0.4 2 25.2
2011-02-15 09:20:18 51°32.957 2°55.08 228.9 0.6 352 26.6
2011-02-15 09:21:18 51°32.967 2°55.078 234.8 0.6 352 27.2
2011-02-15 09:22:18 51°32.975 2°55.076 230.9 0.6 359 27.2
2011-02-15 09:23:18 51°32.983 2°55.075 230.1 0.5 353 27.1
2011-02-15 09:24:18 51°32.991 2°55.073 229.1 0.5 358 26.9
2011-02-15 09:25:18 51°33 2°55.073 229.3 0.6 351 27.6
2011-02-15 09:26:18 51°33.007 2°55.073 226.1 0.5 356 28.1
2011-02-15 09:27:18 51°33.015 2°55.074 227.6 0.6 -999 28.4
2011-02-15 09:28:18 51°33.027 2°55.076 231.7 0.8 3 28.6
2011-02-15 09:29:18 51°33.037 2°55.077 231.3 0.6 7 28.5
2011-02-15 09:30:18 51°33.047 2°55.077 230.1 0.6 4 28.2
2011-02-15 09:31:18 51°33.059 2°55.077 233.4 0.7 4 28.3
2011-02-15 09:32:18 51°33.072 2°55.081 231.9 0.8 15 26.5
2011-02-15 09:33:18 51°33.086 2°55.084 235.8 1 3 24.9
2011-02-15 09:34:18 51°33.101 2°55.086 236.9 0.8 357 27
2011-02-15 09:35:18 51°33.115 2°55.088 234.5 0.7 2 27.4
2011-02-15 09:36:18 51°33.127 2°55.091 233.8 0.8 11 27.4
2011-02-15 09:37:18 51°33.141 2°55.094 233 0.8 10 27.6
2011-02-15 09:38:18 51°33.153 2°55.098 231.6 0.7 12 27.6
2011-02-15 09:39:18 51°33.165 2°55.101 229.5 0.7 10 28.2
2011-02-15 09:40:18 51°33.178 2°55.108 230.4 0.9 18 27.7
2011-02-15 09:41:18 51°33.191 2°55.114 232.2 0.8 23 25.7
2011-02-15 09:42:18 51°33.203 2°55.12 229 0.7 27 26.5
2011-02-15 09:43:18 51°33.213 2°55.123 224.4 0.7 10 28
2011-02-15 09:44:18 51°33.224 2°55.126 225.5 0.6 9 28
2011-02-15 09:45:18 51°33.234 2°55.128 226.5 0.8 6 28.8
2011-02-15 09:46:18 51°33.249 2°55.132 231.3 1 9 28.9
2011-02-15 09:47:18 51°33.264 2°55.135 233.7 0.9 6 28.9
2011-02-15 09:48:18 51°33.279 2°55.14 230.9 0.9 14 28.3
2011-02-15 09:49:18 51°33.293 2°55.149 222.6 0.8 29 27.5
2011-02-15 09:50:18 51°33.298 2°55.151 205.2 0.6 182 27.4
2011-02-15 09:51:18 51°33.261 2°55.152 190.4 3.3 181 28.6
2011-02-15 09:52:18 51°33.212 2°55.183 150.3 3.2 125 28.4
2011-02-15 09:53:18 51°33.21 2°55.262 103.1 2.5 67 27.5
2011-02-15 09:54:18 51°33.232 2°55.302 81.6 1.9 42 28.5
2011-02-15 09:55:18 51°33.258 2°55.333 66.2 1.9 32 29
2011-02-15 09:56:18 51°33.284 2°55.359 61.2 1.7 31 26.1
2011-02-15 09:57:18 51°33.309 2°55.384 63 1.7 31 28.5
2011-02-15 09:58:18 51°33.334 2°55.406 63.2 1.7 28 29.4
2011-02-15 09:59:18 51°33.358 2°55.426 60 1.7 28 28.3
2011-02-15 10:00:18 51°33.383 2°55.446 57.1 1.7 30 29.6
2011-02-15 10:01:18 51°33.41 2°55.506 94.3 3.4 72 29
2011-02-15 10:02:18 51°33.4 2°55.594 154.5 3 132 28.3
2011-02-15 10:03:18 51°33.363 2°55.588 216.8 3 216 26.3
2011-02-15 10:04:18 51°33.314 2°55.541 209.7 3.7 210 29.3
2011-02-15 10:05:18 51°33.273 2°55.503 211.3 2 209 28.5
2011-02-15 10:06:18 51°33.254 2°55.485 211.3 0.7 210 28.5
2011-02-15 10:07:18 51°33.254 2°55.482 207.9 0.6 8 29
2011-02-15 10:08:18 51°33.273 2°55.491 215.3 1.4 19 29.2
2011-02-15 10:09:18 51°33.296 2°55.503 235.9 1.6 14 28.1
2011-02-15 10:10:18 51°33.32 2°55.515 250.5 1.6 19 29.4
2011-02-15 10:11:18 51°33.345 2°55.528 256.3 1.6 22 29.8
2011-02-15 10:12:18 51°33.37 2°55.543 256.4 1.7 24 28.8
2011-02-15 10:13:18 51°33.396 2°55.558 256.3 1.5 10 27.7
2011-02-15 10:14:18 51°33.408 2°55.546 230.1 0.7 272 27.3
2011-02-15 10:15:18 51°33.396 2°55.527 208 1.6 212 28.7
2011-02-15 10:16:18 51°33.354 2°55.495 207.6 3.6 207 29.7
2011-02-15 10:17:18 51°33.293 2°55.448 204.9 4.4 203 29.3
2011-02-15 10:18:18 51°33.229 2°55.406 210.7 3.2 213 28.6
2011-02-15 10:19:18 51°33.201 2°55.366 217.7 1.7 223 28.3
2011-02-15 10:20:18 51°33.186 2°55.341 214.2 0.8 226 27.9
2011-02-15 10:21:18 51°33.177 2°55.329 212.2 0.8 229 27.6
2011-02-15 10:22:18 51°33.168 2°55.311 220.7 1.1 237 26.9
2011-02-15 10:23:18 51°33.169 2°55.266 267 2.3 294 26
2011-02-15 10:24:18 51°33.211 2°55.223 324.5 3.6 349 25.8
2011-02-15 10:25:18 51°33.27 2°55.235 11 3.1 22 28.7
2011-02-15 10:26:18 51°33.305 2°55.26 37.4 2.2 27 29.4
2011-02-15 10:27:18 51°33.332 2°55.28 48.5 1.6 23 26.8
2011-02-15 10:28:18 51°33.357 2°55.296 53.8 1.6 26 27
2011-02-15 10:29:18 51°33.381 2°55.314 57.6 1.6 18 29.7
2011-02-15 10:30:18 51°33.405 2°55.329 60.3 1.7 20 29.3
2011-02-15 10:31:18 51°33.432 2°55.348 65.1 2.1 31 30.2
2011-02-15 10:32:18 51°33.46 2°55.396 87.7 2.8 60 30.1
2011-02-15 10:33:18 51°33.473 2°55.47 124.2 2.8 85 27.7
2011-02-15 10:34:18 51°33.46 2°55.525 168.4 1.9 141 29.1
2011-02-15 10:35:18 51°33.421 2°55.53 194 3.3 187 27.2
2011-02-15 10:36:18 51°33.355 2°55.508 197 4.6 196 29.5
2011-02-15 10:37:18 51°33.279 2°55.47 209.3 4.8 207 29.1
2011-02-15 10:38:18 51°33.213 2°55.39 215.7 5 217 29.1
2011-02-15 10:39:18 51°33.147 2°55.307 218.1 5 219 24.2
2011-02-15 10:40:18 51°33.09 2°55.226 220.1 3.8 222 25.3
2011-02-15 10:41:18 51°33.058 2°55.182 214.8 1.5 229 27.1
2011-02-15 10:42:18 51°33.047 2°55.162 213.4 0.5 235 25.3
2011-02-15 10:43:18 51°33.048 2°55.158 207.7 0.4 345 24.9
2011-02-15 10:44:18 51°33.057 2°55.161 206.9 0.8 7 25.6
2011-02-15 10:45:18 51°33.059 2°55.157 212.9 1 224 25.5
2011-02-15 10:46:18 51°33.048 2°55.123 227.2 1.2 253 27.1
2011-02-15 10:47:18 51°33.047 2°55.103 222.9 0.5 301 28.4
2011-02-15 10:48:18 51°33.057 2°55.098 222.9 0.8 359 27.6
2011-02-15 10:49:18 51°33.074 2°55.101 224 1 14 24.6
2011-02-15 10:50:18 51°33.096 2°55.104 226.7 1.3 13 26.6
2011-02-15 10:51:18 51°33.118 2°55.112 226.2 1.4 11 27.3
2011-02-15 10:52:18 51°33.143 2°55.121 233.8 1.5 18 27.7
2011-02-15 10:53:18 51°33.169 2°55.134 242 1.9 16 25.4
2011-02-15 10:54:18 51°33.197 2°55.149 252.1 1.8 17 27.3
2011-02-15 10:55:18 51°33.223 2°55.164 256.1 1.7 21 28.6
2011-02-15 10:56:18 51°33.251 2°55.18 257.7 1.8 21 27.3
2011-02-15 10:57:18 51°33.278 2°55.197 260.8 1.8 17 26.8
2011-02-15 10:58:18 51°33.303 2°55.213 264.8 1.6 21 28.6
2011-02-15 10:59:18 51°33.328 2°55.227 263 1.7 20 28.2
2011-02-15 11:00:18 51°33.354 2°55.243 261.8 1.6 23 27.7
2011-02-15 11:01:18 51°33.38 2°55.257 261.2 1.6 19 28.3
2011-02-15 11:02:18 51°33.402 2°55.267 251.5 1.1 346 26.8
2011-02-15 11:03:18 51°33.398 2°55.251 198.8 1.3 188 27.7
2011-02-15 11:04:18 51°33.37 2°55.29 142.9 3.4 123 26.5
2011-02-15 11:05:18 51°33.337 2°55.394 129.5 4.9 117 29.7
2011-02-15 11:06:18 51°33.301 2°55.519 135.1 5.2 121 28.3
2011-02-15 11:07:18 51°33.25 2°55.633 140.3 5.3 128 27.7
2011-02-15 11:08:18 51°33.198 2°55.738 141.7 4.4 126 27.3
2011-02-15 11:09:18 51°33.17 2°55.818 140.2 2.9 113 28.1
2011-02-15 11:10:18 51°33.15 2°55.885 142.9 3.1 121 28.4
2011-02-15 11:11:18 51°33.11 2°55.957 152.4 4.2 139 26.8
2011-02-15 11:12:18 51°33.053 2°56.036 146.1 4.8 130 26.9
2011-02-15 11:13:18 51°33.026 2°56.158 113.8 4.5 93 26
2011-02-15 11:14:18 51°33.042 2°56.255 78.4 3.3 62 28.6
2011-02-15 11:15:18 51°33.072 2°56.316 71.2 2.7 47 26.8
2011-02-15 11:16:18 51°33.102 2°56.358 69 2.2 37 27.3
2011-02-15 11:17:18 51°33.13 2°56.388 69.1 2 30 28.1
2011-02-15 11:18:18 51°33.156 2°56.411 69.1 1.7 31 28.9
2011-02-15 11:19:18 51°33.18 2°56.429 70.2 1.6 22 29.2
2011-02-15 11:20:18 51°33.206 2°56.441 64 1.6 10 28.9
2011-02-15 11:21:18 51°33.231 2°56.45 53.1 1.6 10 28.1
2011-02-15 11:22:18 51°33.257 2°56.457 44.8 1.5 9 27.3
2011-02-15 11:23:18 51°33.282 2°56.465 42.4 1.5 9 28.4
2011-02-15 11:24:18 51°33.305 2°56.47 41.5 1.4 6 28.8
2011-02-15 11:25:18 51°33.329 2°56.474 40.1 1.4 4 28.1
2011-02-15 11:26:18 51°33.353 2°56.477 38.1 1.4 1 29.4
2011-02-15 11:27:18 51°33.377 2°56.478 34.4 1.3 5 28.1
2011-02-15 11:28:18 51°33.4 2°56.48 29 1.5 1 28.7
2011-02-15 11:29:18 51°33.424 2°56.482 26.2 1.5 8 29.2
2011-02-15 11:30:18 51°33.448 2°56.486 24.9 1.3 11 29.5
2011-02-15 11:31:18 51°33.472 2°56.49 26.3 1.5 5 29.8
2011-02-15 11:32:18 51°33.495 2°56.495 31.4 1.5 12 28.9
2011-02-15 11:33:18 51°33.52 2°56.502 37.2 1.4 10 28.1
2011-02-15 11:34:18 51°33.547 2°56.51 30 2 17 27.6
2011-02-15 11:35:18 51°33.588 2°56.527 9.7 2.8 12 28.9
2011-02-15 11:36:18 51°33.637 2°56.529 335.8 3.2 349 30.4
2011-02-15 11:37:18 51°33.673 2°56.473 262.8 2.9 278 29.9
2011-02-15 11:38:18 51°33.647 2°56.429 190.6 2.5 184 29.4
2011-02-15 11:39:18 51°33.62 2°56.436 179.6 1.1 168 29.5
2011-02-15 11:40:18 51°33.604 2°56.443 178.2 0.9 156 29.6
2011-02-15 11:41:18 51°33.591 2°56.456 170.6 0.9 139 29
2011-02-15 11:42:18 51°33.581 2°56.472 169.2 0.7 138 28.7
2011-02-15 11:43:18 51°33.571 2°56.489 166.1 1 123 28.4
2011-02-15 11:44:18 51°33.563 2°56.509 165.2 0.9 123 28.1
2011-02-15 11:45:18 51°33.556 2°56.53 163.4 0.9 119 28.1
2011-02-15 11:46:18 51°33.549 2°56.55 164.9 0.8 120 28.1
2011-02-15 11:47:18 51°33.542 2°56.566 167.5 0.7 128 28.4
2011-02-15 11:48:18 51°33.534 2°56.58 169.6 0.8 141 28.2
2011-02-15 11:49:18 51°33.523 2°56.597 164.8 1.1 124 28.2
2011-02-15 11:50:18 51°33.513 2°56.618 163.3 1 125 27.2
2011-02-15 11:51:18 51°33.503 2°56.638 170.5 0.8 140 27.1
2011-02-15 11:52:18 51°33.494 2°56.65 185.2 0.5 164 27.7
2011-02-15 11:53:18 51°33.486 2°56.643 209.7 0.7 243 29.1
2011-02-15 11:54:18 51°33.444 2°56.57 222.2 7.8 225 28.1
2011-02-15 11:55:18 51°33.332 2°56.381 224.7 10.3 226 28.9
2011-02-15 11:56:18 51°33.22 2°56.196 222.5 6.8 220 28.6
2011-02-15 11:57:18 51°33.156 2°56.202 148 3.7 130 28.3
2011-02-15 11:58:18 51°33.163 2°56.303 65.8 4.5 52 27.8
2011-02-15 11:59:18 51°33.228 2°56.343 356.9 3.7 4 29
2011-02-15 12:00:18 51°33.281 2°56.346 353.2 3 2 28.9
2011-02-15 12:01:18 51°33.329 2°56.336 321.5 2.6 342 29
2011-02-15 12:02:18 51°33.36 2°56.304 279 1.9 314 28.8
2011-02-15 12:03:18 51°33.372 2°56.257 252.2 2.2 275 27.9
2011-02-15 12:04:18 51°33.366 2°56.176 245.6 5 254 27.5
2011-02-15 12:05:18 51°33.326 2°55.996 246.2 8.1 248 29.5
2011-02-15 12:06:18 51°33.287 2°55.813 246.9 5.9 253 27.3
2011-02-15 12:07:18 51°33.264 2°55.685 254.6 4.3 266 28.4
2011-02-15 12:08:18 51°33.305 2°55.604 327.4 4.2 341 28.7
2011-02-15 12:09:18 51°33.368 2°55.608 11.9 3.3 11 27.2
2011-02-15 12:10:18 51°33.414 2°55.629 18.9 2.5 19 27.1
2011-02-15 12:11:18 51°33.446 2°55.645 23.2 1.6 15 29
2011-02-15 12:12:18 51°33.467 2°55.651 36.5 1 4 27.7
2011-02-15 12:13:18 51°33.48 2°55.648 29.7 0.7 352 27.5
2011-02-15 12:14:18 51°33.489 2°55.645 18.4 0.4 349 27.6
2011-02-15 12:15:18 51°33.494 2°55.643 7.2 0.2 354 28.2
2011-02-15 12:16:18 51°33.504 2°55.645 357.2 1.2 5 28.1
2011-02-15 12:17:18 51°33.527 2°55.649 358.3 1.6 9 28.9
2011-02-15 12:18:18 51°33.556 2°55.656 6 1.9 9 28.7
2011-02-15 12:19:18 51°33.586 2°55.667 16.6 1.8 12 27.3
2011-02-15 12:20:18 51°33.614 2°55.679 23 1.7 13 28.9
2011-02-15 12:21:18 51°33.65 2°55.704 46.2 3.3 39 30
2011-02-15 12:22:18 51°33.674 2°55.788 104.2 3.5 87 29.7
2011-02-15 12:23:18 51°33.65 2°55.867 149.8 3.7 135 30.1
2011-02-15 12:24:18 51°33.593 2°55.902 182.1 3.8 177 29.6
2011-02-15 12:25:18 51°33.527 2°55.906 177.1 4 171 29.4
2011-02-15 12:26:18 51°33.466 2°55.947 156.2 3.5 144 28.9
2011-02-15 12:27:18 51°33.433 2°56.004 145.3 2.4 123 29.2
2011-02-15 12:28:18 51°33.418 2°56.055 139.4 2.3 111 28.3
2011-02-15 12:29:18 51°33.387 2°56.086 184.9 3.4 181 27.3
2011-02-15 12:30:18 51°33.304 2°56.067 188.4 6 187 28.8
2011-02-15 12:31:18 51°33.199 2°56.068 177.6 6.5 175 28
2011-02-15 12:32:18 51°33.094 2°56.118 159.7 6.7 152 26
2011-02-15 12:33:18 51°33.037 2°56.208 147.2 3.4 136 26.9
2011-02-15 12:34:18 51°33.004 2°56.254 151.7 2.5 130 26.6
2011-02-15 12:35:18 51°33.002 2°56.333 85.4 3.8 68 27.2
2011-02-15 12:36:18 51°33.054 2°56.392 17.4 3.5 13 25.7
2011-02-15 12:37:18 51°33.105 2°56.411 13.2 2.8 12 26.8
2011-02-15 12:38:18 51°33.145 2°56.425 20.6 2.3 15 27.8
2011-02-15 12:39:18 51°33.179 2°56.439 29.9 1.8 16 28.7
2011-02-15 12:40:18 51°33.203 2°56.445 39.2 1.4 8 28.4
2011-02-15 12:41:18 51°33.235 2°56.461 22.2 2.8 18 27.8
2011-02-15 12:42:18 51°33.287 2°56.46 332.2 3.3 343 28
2011-02-15 12:43:18 51°33.322 2°56.418 283.2 2.2 308 28.6
2011-02-15 12:44:18 51°33.333 2°56.372 241.5 1.5 267 28.7
2011-02-15 12:45:18 51°33.321 2°56.342 205.5 1.5 212 28.5
2011-02-15 12:46:18 51°33.292 2°56.326 189.3 2.1 190 27.9
2011-02-15 12:47:18 51°33.255 2°56.327 177.2 2.1 170 28.6
2011-02-15 12:48:18 51°33.228 2°56.339 172.4 1.4 159 29
2011-02-15 12:49:18 51°33.211 2°56.35 169.8 0.9 162 28.5
2011-02-15 12:50:18 51°33.2 2°56.362 168 0.7 145 28.2
2011-02-15 12:51:18 51°33.192 2°56.376 162.5 0.7 127 28.8
2011-02-15 12:52:18 51°33.187 2°56.391 159.9 0.6 115 28.4
2011-02-15 12:53:18 51°33.182 2°56.408 156.6 0.6 112 28.7
2011-02-15 12:54:18 51°33.181 2°56.426 149.9 0.5 96 28.6
2011-02-15 12:55:18 51°33.182 2°56.441 149.1 0.5 74 28.5
2011-02-15 12:56:18 51°33.185 2°56.457 144.8 0.5 68 28.3
2011-02-15 12:57:18 51°33.189 2°56.473 143.9 0.6 58 28.4
2011-02-15 12:58:18 51°33.196 2°56.489 139.3 0.9 55 28.1
2011-02-15 12:59:18 51°33.205 2°56.508 128.8 0.9 47 26.7
2011-02-15 13:00:18 51°33.219 2°56.529 114.7 1.3 48 26
2011-02-15 13:01:18 51°33.223 2°56.573 136.6 2 108 26
2011-02-15 13:02:18 51°33.193 2°56.579 209.1 2.6 221 27.2
2011-02-15 13:03:18 51°33.175 2°56.48 250.1 4.9 260 28.1
2011-02-15 13:04:18 51°33.157 2°56.338 250.6 5.7 258 26.6
2011-02-15 13:05:18 51°33.14 2°56.203 246.7 3.9 258 27.4
2011-02-15 13:06:18 51°33.128 2°56.132 233.3 2.1 257 26.3
2011-02-15 13:07:18 51°33.125 2°56.09 230.5 1.3 273 25.8
2011-02-15 13:08:18 51°33.129 2°56.063 228.9 1 298 24.5
2011-02-15 13:09:18 51°33.139 2°56.045 230.9 1 321 25.4
2011-02-15 13:10:18 51°33.154 2°56.033 234.1 1 340 26.1
2011-02-15 13:11:18 51°33.17 2°56.022 235 1 344 26.6
2011-02-15 13:12:18 51°33.187 2°56.015 236 1.1 350 26.4
2011-02-15 13:13:18 51°33.206 2°56.009 240.9 1.1 354 26.9
2011-02-15 13:14:18 51°33.225 2°56.004 249.1 1.2 353 27.3
2011-02-15 13:15:18 51°33.245 2°55.999 254.1 1.2 350 28
2011-02-15 13:16:18 51°33.263 2°55.974 278 2.1 307 28.2
2011-02-15 13:17:18 51°33.302 2°55.927 330.6 3.6 339 28.2
2011-02-15 13:18:18 51°33.361 2°55.932 26 3.3 18 25.8
2011-02-15 13:19:18 51°33.404 2°55.964 44.6 2.6 26 27
2011-02-15 13:20:18 51°33.438 2°55.993 55 2 31 28.6
2011-02-15 13:21:18 51°33.465 2°56.018 64.7 1.7 32 27
2011-02-15 13:22:18 51°33.488 2°56.04 72.7 1.4 31 28.6
2011-02-15 13:23:18 51°33.51 2°56.057 78.5 1.3 24 29
2011-02-15 13:24:18 51°33.529 2°56.071 84.1 1.2 21 29.2
2011-02-15 13:25:18 51°33.548 2°56.082 87 1.2 20 29.2
2011-02-15 13:26:18 51°33.567 2°56.093 88.3 1.2 19 28.7
2011-02-15 13:27:18 51°33.586 2°56.125 93 2.5 63 28.1
2011-02-15 13:28:18 51°33.588 2°56.21 119.8 3.8 106 29.5
2011-02-15 13:29:18 51°33.536 2°56.325 135.6 7.4 129 29.4
2011-02-15 13:30:18 51°33.408 2°56.487 150 11.6 149 27.6
2011-02-15 13:31:18 51°33.234 2°56.666 147.4 12.7 145 26.9
2011-02-15 13:32:18 51°33.061 2°56.859 147.5 12.6 146 25.8
2011-02-15 13:33:18 51°32.889 2°57.052 147.7 12.6 147 23.7
2011-02-15 13:34:19 51°32.716 2°57.252 146.7 12.5 144 21.1
2011-02-15 13:35:19 51°32.542 2°57.434 154.2 12.4 154 16.5
2011-02-15 13:36:18 51°32.345 2°57.502 176.7 12.3 180 18.9
2011-02-15 13:37:19 51°32.142 2°57.449 192.4 12.2 193 15.9
2011-02-15 13:38:18 51°31.946 2°57.382 191.5 12.3 192 18.3
2011-02-15 13:39:19 51°31.741 2°57.317 193.1 12.5 193 27.3
2011-02-15 13:40:18 51°31.568 2°57.249 194.1 8.8 194 33.5
2011-02-15 13:41:19 51°31.525 2°57.129 279.5 5.8 294 33.1
2011-02-15 13:42:19 51°31.62 2°57.098 17.6 6.7 16 25.7
2011-02-15 13:43:19 51°31.693 2°57.176 58.9 3.6 47 26
2011-02-15 13:44:19 51°31.717 2°57.186 85 1.4 331 24.3
2011-02-15 13:45:19 51°31.738 2°57.18 69 1.5 17 21.6
2011-02-15 13:46:19 51°31.759 2°57.23 104.6 2.1 67 23
2011-02-15 13:47:18 51°31.77 2°57.269 111.1 1.2 65 23.4
2011-02-15 13:48:19 51°31.777 2°57.305 126 2.3 110 24.6
2011-02-15 13:49:19 51°31.74 2°57.318 201.2 2.4 210 26.9
2011-02-15 13:50:18 51°31.722 2°57.274 232.1 1.6 255 25.7
2011-02-15 13:51:18 51°31.724 2°57.237 230.6 1.3 273 24.6
2011-02-15 13:52:19 51°31.726 2°57.212 218.5 0.8 282 24.1
2011-02-15 13:53:19 51°31.728 2°57.193 202.1 0.6 258 23.2
2011-02-15 13:54:19 51°31.72 2°57.187 173 0.4 166 23.8
2011-02-15 13:55:19 51°31.716 2°57.194 157.7 0.4 124 24.4
2011-02-15 13:56:19 51°31.713 2°57.207 154.7 0.7 139 25.3
2011-02-15 13:57:19 51°31.71 2°57.221 158 0.3 89 26.7
2011-02-15 13:58:19 51°31.708 2°57.228 171 0.3 138 26.5
2011-02-15 13:59:19 51°31.7 2°57.227 183.7 0.7 195 26.6
2011-02-15 14:00:18 51°31.684 2°57.216 193.2 1.2 209 27.8
2011-02-15 14:01:18 51°31.673 2°57.204 196.2 0.4 329 28.3
2011-02-15 14:02:19 51°31.689 2°57.198 225.7 1.2 342 -999
2011-02-15 14:03:21 51°31.709 2°57.19 249.5 1.1 349 25.4
2011-02-15 14:04:19 51°31.728 2°57.183 263.6 1.4 340 22.9
2011-02-15 14:05:19 51°31.751 2°57.155 287.1 2.2 313 21
2011-02-15 14:06:19 51°31.796 2°57.107 334.7 4 341 19
2011-02-15 14:07:19 51°31.854 2°57.112 24 3 13 16.7
2011-02-15 14:08:18 51°31.896 2°57.134 39.4 2.4 18 18
2011-02-15 14:09:19 51°31.928 2°57.154 51 1.8 22 17.7
2011-02-15 14:10:18 51°31.955 2°57.17 58.8 1.8 15 16.7
2011-02-15 14:11:19 51°31.981 2°57.188 72.8 1.8 32 18
2011-02-15 14:12:19 51°31.995 2°57.233 111.9 2.3 89 18
2011-02-15 14:13:19 51°31.97 2°57.274 169.6 2.5 171 17.8
2011-02-15 14:14:18 51°31.887 2°57.239 190.9 8.4 193 17.9
2011-02-15 14:15:19 51°31.704 2°57.177 191.7 12.1 193 23.7
2011-02-15 14:16:19 51°31.505 2°57.102 192.7 12.4 193 32.4
2011-02-15 14:17:19 51°31.305 2°57.027 192.8 12.4 193 34.3
2011-02-15 14:18:18 51°31.108 2°56.948 193.2 12.6 194 32.4
2011-02-15 14:19:19 51°30.904 2°56.865 192.4 12.4 194 31.7
2011-02-15 14:20:18 51°30.705 2°56.786 192.1 12.4 194 31.3
2011-02-15 14:21:19 51°30.498 2°56.704 192.3 12.6 194 31
2011-02-15 14:22:19 51°30.294 2°56.619 193.8 12.7 194 31.4
2011-02-15 14:23:19 51°30.09 2°56.532 193 12.7 196 30.5
2011-02-15 14:24:19 51°29.887 2°56.447 193 12.5 194 28.8
2011-02-15 14:25:18 51°29.687 2°56.366 193.2 12.6 194 27.5
2011-02-15 14:26:19 51°29.481 2°56.283 192.7 12.5 194 26.3
2011-02-15 14:27:18 51°29.283 2°56.202 192.6 12.6 194 25.4
2011-02-15 14:28:18 51°29.082 2°56.12 193.2 12.5 195 22.8
2011-02-15 14:29:18 51°28.88 2°56.034 193.8 12.5 195 24.3
2011-02-15 14:30:18 51°28.68 2°55.95 193.2 12.5 195 24.1
2011-02-15 14:31:19 51°28.476 2°55.866 192.8 12.4 194 24.8
2011-02-15 14:32:18 51°28.278 2°55.785 192.9 12.4 195 27.1
2011-02-15 14:33:19 51°28.072 2°55.7 193 12.6 195 27.6
2011-02-15 14:34:19 51°27.87 2°55.613 193.3 12.5 195 28.1
2011-02-15 14:35:19 51°27.667 2°55.527 193.4 12.6 195 29.4
2011-02-15 14:36:19 51°27.465 2°55.441 193.6 12.5 195 29.2
2011-02-15 14:37:19 51°27.263 2°55.354 193 12.6 195 29.5
2011-02-15 14:38:19 51°27.061 2°55.266 193.4 12.6 195 28.3
2011-02-15 14:39:19 51°26.856 2°55.176 193.5 12.7 195 26.8
2011-02-15 14:40:18 51°26.655 2°55.088 194 12.9 197 27.6
2011-02-15 14:41:18 51°26.449 2°54.999 193.5 12.8 196 25.2
2011-02-15 14:42:19 51°26.242 2°54.905 193.4 12.8 196 24.6
2011-02-15 14:43:18 51°26.042 2°54.815 193.3 12.7 196 24.7
2011-02-15 14:44:19 51°25.834 2°54.722 193.2 12.7 195 22.5
2011-02-15 14:45:18 51°25.634 2°54.629 193.8 12.7 196 20.5
2011-02-15 14:46:19 51°25.425 2°54.538 192.8 12.7 194 18.7
2011-02-15 14:47:18 51°25.223 2°54.449 192.4 12.7 195 19.7
2011-02-15 14:48:19 51°25.013 2°54.355 193.3 12.8 195 19.6
2011-02-15 14:49:19 51°24.805 2°54.263 193.4 12.8 196 18
2011-02-15 14:50:19 51°24.599 2°54.17 193.7 12.9 197 18.3
2011-02-15 14:51:19 51°24.393 2°54.073 193.7 12.9 196 17.9
2011-02-15 14:52:19 51°24.185 2°53.98 192.7 13 196 21.6
2011-02-15 14:53:17 51°23.981 2°53.932 177.7 12.8 180 21.9
2011-02-15 14:54:17 51°23.783 2°53.809 207.9 13.1 211 20.8
2011-02-15 14:55:19 51°23.588 2°53.626 208.1 13.1 211 19
2011-02-15 14:56:17 51°23.406 2°53.452 208.4 13.2 211 21.1
2011-02-15 14:57:17 51°23.217 2°53.272 208.8 13.1 210 20.4
2011-02-15 14:58:19 51°23.023 2°53.085 209 13.2 212 21.6
2011-02-15 14:59:17 51°22.851 2°52.887 214 13.2 217 22.3
2011-02-15 15:00:19 51°22.662 2°52.687 208.8 13.2 211 22.8
2011-02-15 15:01:18 51°22.472 2°52.537 192.8 12.7 191 23.1
2011-02-15 15:02:19 51°22.256 2°52.53 176.6 12.9 180 24
2011-02-15 15:03:19 51°22.042 2°52.526 177.9 12.9 182 24.1
2011-02-15 15:04:19 51°21.826 2°52.517 178.2 13 182 22.6
2011-02-15 15:05:18 51°21.614 2°52.505 178.6 13 182 20
2011-02-15 15:06:19 51°21.396 2°52.488 178.5 12.8 183 17.5
2011-02-15 15:07:19 51°21.181 2°52.473 178.9 12.9 183 16.3
2011-02-15 15:08:19 51°20.967 2°52.456 179.3 12.8 182 15.2
2011-02-15 15:09:19 51°20.753 2°52.438 179.5 12.9 183 14.2
2011-02-15 15:10:18 51°20.542 2°52.422 179 13 182 15.2
2011-02-15 15:11:18 51°20.328 2°52.404 180 13 184 15.9
2011-02-15 15:12:18 51°20.112 2°52.383 179.4 13.1 184 16.2
2011-02-15 15:13:18 51°19.895 2°52.362 179.8 13.1 185 16
2011-02-15 15:14:18 51°19.678 2°52.343 178.4 13 183 15.7
2011-02-15 15:15:19 51°19.457 2°52.317 179.5 13.2 183 15.3
2011-02-15 15:16:19 51°19.239 2°52.301 178.9 13.1 183 14.6
2011-02-15 15:17:19 51°19.021 2°52.281 178.5 13.1 182 13.5
2011-02-15 15:18:19 51°18.804 2°52.26 179.1 13.1 183 12.5
2011-02-15 15:19:19 51°18.587 2°52.237 179.3 13 184 11.6
2011-02-15 15:20:19 51°18.37 2°52.244 172.6 13 176 11
2011-02-15 15:21:19 51°18.153 2°52.254 173 13.1 177 10.9
2011-02-15 15:22:19 51°17.935 2°52.267 173.8 13 179 10.4
2011-02-15 15:23:18 51°17.721 2°52.275 174.6 13.2 178 10.4
2011-02-15 15:24:18 51°17.504 2°52.285 175.4 13.1 179 10.3
2011-02-15 15:25:18 51°17.286 2°52.3 173 13.1 177 10.2
2011-02-15 15:26:18 51°17.072 2°52.331 164.7 12.7 167 9.6
2011-02-15 15:27:19 51°16.861 2°52.414 161.7 12.8 164 9.2
2011-02-15 15:28:18 51°16.676 2°52.567 145.6 12.8 148 10.7
2011-02-15 15:29:19 51°16.485 2°52.733 148 13 151 11.6
2011-02-15 15:30:19 51°16.296 2°52.891 148.2 12.9 152 11.6
2011-02-15 15:31:19 51°16.12 2°53.076 140.7 12.7 146 11.6
2011-02-15 15:32:18 51°15.948 2°53.26 140.9 12.7 146 11.5
2011-02-15 15:33:19 51°15.774 2°53.46 137.5 12.7 143 11.1
2011-02-15 15:34:19 51°15.606 2°53.658 140.9 12.5 146 10.8
2011-02-15 15:35:19 51°15.437 2°53.858 137.9 12.7 142 10.6
2011-02-15 15:36:19 51°15.272 2°54.075 138.3 12.8 141 10.7
2011-02-15 15:37:19 51°15.101 2°54.28 140.7 12.6 141 9.9
2011-02-15 15:38:19 51°14.93 2°54.481 139.4 12.9 144 10.7
2011-02-15 15:39:18 51°14.763 2°54.688 138 12.8 144 11.4
2011-02-15 15:40:19 51°14.593 2°54.893 138.3 12.6 142 10.9
2011-02-15 15:41:19 51°14.43 2°55.1 141.1 12.3 142 9.7
2011-02-15 15:42:19 51°14.277 2°55.279 144.5 10.7 145 9.8
2011-02-15 15:43:18 51°14.141 2°55.404 155.1 8.3 157 10
2011-02-15 15:44:18 51°14.023 2°55.488 155.2 7.5 155 10
2011-02-15 15:45:18 51°13.922 2°55.561 156.9 5.9 157 10.3
2011-02-15 15:46:18 51°13.84 2°55.62 154.4 4.7 154 9.8
2011-02-15 15:47:19 51°13.777 2°55.698 136.5 4.8 136 -999
2011-02-15 15:48:21 51°13.722 2°55.792 132.1 4.3 130 9.9
2011-02-15 15:49:19 51°13.686 2°55.87 125 3.3 124 7
2011-02-15 15:50:18 51°13.666 2°55.944 108.8 2.7 107 7.5
2011-02-15 15:51:19 51°13.664 2°55.956 119.6 0.2 143 7.5